MSC Claudia — 3FZA6 — position and weather

sailwx.info

Track history (hours):
 
Tides and Currents Weather Stations Pressure Air Temp Water Temp Dewpoint Dewpoint Depression Visibility Wind Speed Wind Dir Waves Ship Positions

MSC Claudia

Last reported at 2014-Dec-14 15:21 UTC. Time now 2014-Dec-19 04:42 UTC.
Position S 31°49' E 115°28'.

Length 292 m; draft 12 m.

Type: Ship (hazmat cat A). MMSI: 370606000.

Date/timePositionNaut miles runAvg speedWind from/ knotsBaromVisibWave heightAir tempDewpointWater temp
2014-Dec-14 15:21S 31°49' E 115°28'1215.5
2014-Dec-14 14:33S 31°57' E 115°39'8 7.7
2014-Dec-14 13:33S 32°03' E 115°45'0 0.2
2014-Dec-14 12:33S 32°03' E 115°45'0 0.0
2014-Dec-14 11:33S 32°03' E 115°45'0 0.0
2014-Dec-14 10:33S 32°03' E 115°45'0 0.0
2014-Dec-14 09:33S 32°03' E 115°45'0 0.0
2014-Dec-14 08:33S 32°03' E 115°45'0 0.0
2014-Dec-14 07:33S 32°03' E 115°45'0 0.0
2014-Dec-14 06:33S 32°03' E 115°45'0 0.0
2014-Dec-14 05:33S 32°03' E 115°45'0 0.0
2014-Dec-14 04:33S 32°03' E 115°45'0 0.0
2014-Dec-14 03:33S 32°03' E 115°45'0 0.0
2014-Dec-14 02:34S 32°03' E 115°45'0 0.0
2014-Dec-14 01:33S 32°03' E 115°45'0 0.0
2014-Dec-14 00:34S 32°03' E 115°45'0 0.0
2014-Dec-13 23:33S 32°03' E 115°45'0 0.0
2014-Dec-13 22:34S 32°03' E 115°45'0 0.0
2014-Dec-13 21:33S 32°03' E 115°45'0 0.0
2014-Dec-13 20:33S 32°03' E 115°45'0 0.0
2014-Dec-13 19:33S 32°03' E 115°45'0 0.0
2014-Dec-13 18:33S 32°03' E 115°45'0 0.0
2014-Dec-13 17:33S 32°03' E 115°45'0 0.0
2014-Dec-13 16:34S 32°03' E 115°45'0 0.0
2014-Dec-13 15:33S 32°03' E 115°45'0 0.0
2014-Dec-13 14:33S 32°03' E 115°45'0 0.0
2014-Dec-13 13:33S 32°03' E 115°45'0 0.0
2014-Dec-13 12:33S 32°03' E 115°45'0 0.0
2014-Dec-13 11:33S 32°03' E 115°45'0 0.0
2014-Dec-13 10:33S 32°03' E 115°45'0 0.0
2014-Dec-13 09:33S 32°03' E 115°45'0 0.0
2014-Dec-13 08:33S 32°03' E 115°45'0 0.0
2014-Dec-13 07:33S 32°03' E 115°45'0 0.0
2014-Dec-13 06:33S 32°03' E 115°45'3 2.7
2014-Dec-13 05:33S 32°02' E 115°42'8 8.1
2014-Dec-13 04:33S 31°55' E 115°36'1513.8
2014-Dec-13 03:29S 31°55' E 115°19'  
2014-Dec-09 22:33S 35°32' E 136°55'1716.9
2014-Dec-09 21:33S 35°25' E 137°14'1817.7
2014-Dec-09 20:33S 35°19' E 137°34'56 6.2
2014-Dec-09 11:32S 34°46' E 138°29'0 0.0
2014-Dec-09 10:32S 34°46' E 138°29'0 0.0
2014-Dec-09 09:32S 34°46' E 138°29'0 0.0
2014-Dec-09 08:31S 34°46' E 138°29'0 0.0
2014-Dec-09 07:31S 34°46' E 138°29'0 0.0
2014-Dec-09 06:31S 34°46' E 138°29'0 0.0
2014-Dec-09 05:28S 34°46' E 138°29'0 0.0
2014-Dec-09 04:31S 34°46' E 138°29'0 0.0
2014-Dec-09 03:31S 34°46' E 138°29'0 0.0
2014-Dec-08 22:16S 34°46' E 138°29'0 0.1
2014-Dec-08 21:28S 34°46' E 138°29'0 0.0
2014-Dec-08 19:31S 34°46' E 138°29'0 0.0
2014-Dec-08 04:31S 34°46' E 138°29'219 8.7
2014-Dec-07 03:20S 38°05' E 140°23'1416.1
2014-Dec-07 02:26S 38°15' E 140°36'1615.8
2014-Dec-07 01:25S 38°26' E 140°51'1515.4
2014-Dec-07 00:26S 38°36' E 141°06'1314.7
2014-Dec-06 23:31S 38°41' E 141°21'1515.3
2014-Dec-06 22:33S 38°44' E 141°40'1515.3
2014-Dec-06 21:33S 38°46' E 141°60'1515.4
2014-Dec-06 20:33S 38°48' E 142°19'1515.1
2014-Dec-06 19:33S 38°50' E 142°39'1514.8
2014-Dec-06 18:32S 38°53' E 142°58'  
Track history (hours):
 
Tides and Currents Weather Stations Pressure Air Temp Water Temp Dewpoint Dewpoint Depression Visibility Wind Speed Wind Dir Waves Ship Positions

MSC Claudia

Last reported at 2014-Dec-14 15:21 UTC. Time now 2014-Dec-19 04:42 UTC.
Position S 31°49' E 115°28'.

Length 292 m; draft 12 m.

Type: Ship (hazmat cat A). MMSI: 370606000.

Date/timePositionNaut miles runAvg speedWind from/ knotsBaromVisibWave heightAir tempDewpointWater temp
2014-Dec-14 15:21S 31°49' E 115°28'1215.5
2014-Dec-14 14:33S 31°57' E 115°39'8 7.7
2014-Dec-14 13:33S 32°03' E 115°45'0 0.2
2014-Dec-14 12:33S 32°03' E 115°45'0 0.0
2014-Dec-14 11:33S 32°03' E 115°45'0 0.0
2014-Dec-14 10:33S 32°03' E 115°45'0 0.0
2014-Dec-14 09:33S 32°03' E 115°45'0 0.0
2014-Dec-14 08:33S 32°03' E 115°45'0 0.0
2014-Dec-14 07:33S 32°03' E 115°45'0 0.0
2014-Dec-14 06:33S 32°03' E 115°45'0 0.0
2014-Dec-14 05:33S 32°03' E 115°45'0 0.0
2014-Dec-14 04:33S 32°03' E 115°45'0 0.0
2014-Dec-14 03:33S 32°03' E 115°45'0 0.0
2014-Dec-14 02:34S 32°03' E 115°45'0 0.0
2014-Dec-14 01:33S 32°03' E 115°45'0 0.0
2014-Dec-14 00:34S 32°03' E 115°45'0 0.0
2014-Dec-13 23:33S 32°03' E 115°45'0 0.0
2014-Dec-13 22:34S 32°03' E 115°45'0 0.0
2014-Dec-13 21:33S 32°03' E 115°45'0 0.0
2014-Dec-13 20:33S 32°03' E 115°45'0 0.0
2014-Dec-13 19:33S 32°03' E 115°45'0 0.0
2014-Dec-13 18:33S 32°03' E 115°45'0 0.0
2014-Dec-13 17:33S 32°03' E 115°45'0 0.0
2014-Dec-13 16:34S 32°03' E 115°45'0 0.0
2014-Dec-13 15:33S 32°03' E 115°45'0 0.0
2014-Dec-13 14:33S 32°03' E 115°45'0 0.0
2014-Dec-13 13:33S 32°03' E 115°45'0 0.0
2014-Dec-13 12:33S 32°03' E 115°45'0 0.0
2014-Dec-13 11:33S 32°03' E 115°45'0 0.0
2014-Dec-13 10:33S 32°03' E 115°45'0 0.0
2014-Dec-13 09:33S 32°03' E 115°45'0 0.0
2014-Dec-13 08:33S 32°03' E 115°45'0 0.0
2014-Dec-13 07:33S 32°03' E 115°45'0 0.0
2014-Dec-13 06:33S 32°03' E 115°45'3 2.7
2014-Dec-13 05:33S 32°02' E 115°42'8 8.1
2014-Dec-13 04:33S 31°55' E 115°36'1513.8
2014-Dec-13 03:29S 31°55' E 115°19'  
2014-Dec-09 22:33S 35°32' E 136°55'1716.9
2014-Dec-09 21:33S 35°25' E 137°14'1817.7
2014-Dec-09 20:33S 35°19' E 137°34'56 6.2
2014-Dec-09 11:32S 34°46' E 138°29'0 0.0
2014-Dec-09 10:32S 34°46' E 138°29'0 0.0
2014-Dec-09 09:32S 34°46' E 138°29'0 0.0
2014-Dec-09 08:31S 34°46' E 138°29'0 0.0
2014-Dec-09 07:31S 34°46' E 138°29'0 0.0
2014-Dec-09 06:31S 34°46' E 138°29'0 0.0
2014-Dec-09 05:28S 34°46' E 138°29'0 0.0
2014-Dec-09 04:31S 34°46' E 138°29'0 0.0
2014-Dec-09 03:31S 34°46' E 138°29'0 0.0
2014-Dec-08 22:16S 34°46' E 138°29'0 0.1
2014-Dec-08 21:28S 34°46' E 138°29'0 0.0
2014-Dec-08 19:31S 34°46' E 138°29'0 0.0
2014-Dec-08 04:31S 34°46' E 138°29'219 8.7
2014-Dec-07 03:20S 38°05' E 140°23'1416.1
2014-Dec-07 02:26S 38°15' E 140°36'1615.8
2014-Dec-07 01:25S 38°26' E 140°51'1515.4
2014-Dec-07 00:26S 38°36' E 141°06'1314.7
2014-Dec-06 23:31S 38°41' E 141°21'1515.3
2014-Dec-06 22:33S 38°44' E 141°40'1515.3
2014-Dec-06 21:33S 38°46' E 141°60'1515.4
2014-Dec-06 20:33S 38°48' E 142°19'1515.1
2014-Dec-06 19:33S 38°50' E 142°39'1514.8
2014-Dec-06 18:32S 38°53' E 142°58'  

Dump ship's entire track history